createdAt,value
2023-04-08T00:03:33.057Z,4.1
2023-04-08T00:08:39.336Z,4.1
2023-04-08T00:13:45.271Z,4.1
2023-04-08T00:18:50.464Z,4.1
2023-04-08T00:23:56.522Z,4.1
2023-04-08T00:29:02.668Z,4.1
2023-04-08T00:34:08.782Z,4.2
2023-04-08T00:39:14.892Z,4.1
2023-04-08T00:44:20.996Z,4.1
2023-04-08T00:49:27.115Z,4.1
2023-04-08T00:54:33.223Z,4.1
2023-04-08T00:59:39.355Z,4.1
2023-04-08T01:04:45.482Z,4.2
2023-04-08T01:09:51.621Z,4.1
2023-04-08T01:14:57.727Z,4.2
2023-04-08T01:20:03.919Z,4.2
2023-04-08T01:25:08.949Z,4.2
2023-04-08T01:30:15.144Z,4.2
2023-04-08T01:35:21.177Z,4.2
2023-04-08T01:45:33.416Z,4.2
2023-04-08T01:50:39.545Z,4.2
2023-04-08T01:55:45.673Z,4.2
2023-04-08T02:00:51.771Z,4.2
2023-04-08T02:05:57.906Z,4.2
2023-04-08T02:16:10.122Z,4.2
2023-04-08T02:21:16.243Z,4.3
2023-04-08T02:26:22.376Z,4.3
2023-04-08T02:31:27.513Z,4.2
2023-04-08T02:36:33.603Z,4.2
2023-04-08T02:41:39.773Z,4.3
2023-04-08T02:46:45.851Z,4.2
2023-04-08T02:51:51.977Z,4.3
2023-04-08T02:56:58.107Z,4.3
2023-04-08T03:02:04.206Z,4.3
2023-04-08T03:07:10.327Z,4.3
2023-04-08T03:12:16.448Z,4.3
2023-04-08T03:17:22.586Z,4.3
2023-04-08T03:22:28.692Z,4.3
2023-04-08T03:27:34.798Z,4.3
2023-04-08T03:32:40.939Z,4.3
2023-04-08T03:37:46.092Z,4.4
2023-04-08T03:42:52.258Z,4.4
2023-04-08T03:47:58.293Z,4.4
2023-04-08T03:53:04.421Z,4.3
2023-04-08T03:58:10.536Z,4.3
2023-04-08T04:03:15.680Z,4.3
2023-04-08T04:08:21.847Z,4.3
2023-04-08T04:13:27.903Z,4.4
2023-04-08T04:18:34.069Z,4.3
2023-04-08T04:23:40.148Z,4.3
2023-04-08T04:28:46.265Z,4.4
2023-04-08T04:33:52.379Z,4.4
2023-04-08T04:38:58.494Z,4.4
2023-04-08T04:44:04.609Z,4.4
2023-04-08T04:49:10.752Z,4.4
2023-04-08T04:54:16.870Z,4.4
2023-04-08T04:59:23.067Z,4.4
2023-04-08T05:04:29.118Z,4.5
2023-04-08T05:09:34.237Z,4.5
2023-04-08T05:14:40.359Z,4.5
2023-04-08T05:19:46.562Z,4.5
2023-04-08T05:24:52.596Z,4.5
2023-04-08T05:29:58.779Z,4.5
2023-04-08T05:35:04.849Z,4.5
2023-04-08T05:40:11.009Z,4.6
2023-04-08T05:45:17.062Z,4.6
2023-04-08T05:50:23.191Z,4.6
2023-04-08T05:55:29.293Z,4.6
2023-04-08T06:00:35.519Z,4.7
2023-04-08T06:05:41.589Z,4.7
2023-04-08T06:10:47.643Z,4.8
2023-04-08T06:15:52.788Z,4.8
2023-04-08T06:20:58.889Z,4.8
2023-04-08T06:26:05.028Z,5
2023-04-08T06:31:11.188Z,5
2023-04-08T06:36:17.256Z,5
2023-04-08T06:41:23.384Z,5.1
2023-04-08T06:46:29.500Z,5.1
2023-04-08T06:51:35.629Z,5.1
2023-04-08T06:56:41.779Z,5.1
2023-04-08T07:01:47.942Z,5.2
2023-04-08T07:06:54.038Z,5.3
2023-04-08T07:12:00.095Z,5.3
2023-04-08T07:17:06.305Z,5.3
2023-04-08T07:22:11.340Z,5.4
2023-04-08T07:27:17.459Z,5.4
2023-04-08T07:32:23.571Z,5.5
2023-04-08T07:37:29.733Z,5.5
2023-04-08T07:42:35.821Z,5.6
2023-04-08T07:47:42.059Z,5.8
2023-04-08T07:52:48.056Z,5.8
2023-04-08T07:57:54.279Z,5.9
2023-04-08T08:03:00.293Z,5.9
2023-04-08T08:08:06.416Z,6
2023-04-08T08:13:12.533Z,6
2023-04-08T08:18:18.631Z,6
2023-04-08T08:23:24.899Z,6
2023-04-08T08:28:29.919Z,6
2023-04-08T08:33:36.078Z,6.2
2023-04-08T08:38:42.099Z,6.3
2023-04-08T08:43:48.296Z,6.3
2023-04-08T08:48:54.421Z,6.1
2023-04-08T08:54:00.466Z,6.3
2023-04-08T08:59:06.602Z,6.3
2023-04-08T09:04:12.713Z,6.4
2023-04-08T09:09:18.919Z,6.6
2023-04-08T09:14:25.049Z,6.7
2023-04-08T09:19:31.046Z,6.7
2023-04-08T09:24:37.235Z,6.8
2023-04-08T09:29:43.294Z,6.7
2023-04-08T09:34:48.439Z,6.9
2023-04-08T09:39:54.482Z,7.1
2023-04-08T09:45:00.744Z,6.7
2023-04-08T09:50:06.697Z,6.9
2023-04-08T09:55:12.853Z,6.9
2023-04-08T10:00:18.923Z,6.7
2023-04-08T10:05:25.061Z,7
2023-04-08T10:10:31.212Z,6.8
2023-04-08T10:15:37.429Z,6.6
2023-04-08T10:20:43.433Z,6.7
2023-04-08T10:25:49.488Z,7.2
2023-04-08T10:30:55.610Z,7.2
2023-04-08T10:36:01.769Z,7.2
2023-04-08T10:41:06.884Z,7.1
2023-04-08T10:46:12.986Z,7.2
2023-04-08T10:51:19.060Z,7.1
2023-04-08T10:56:25.355Z,7.1
2023-04-08T11:01:31.390Z,7.2
2023-04-08T11:06:37.405Z,7.4
2023-04-08T11:11:43.506Z,7.2
2023-04-08T11:16:49.620Z,6.9
2023-04-08T11:21:55.796Z,6.8
2023-04-08T11:27:01.878Z,6.8
2023-04-08T11:32:07.953Z,7.5
2023-04-08T11:37:14.051Z,7.4
2023-04-08T11:42:20.186Z,7.5
2023-04-08T11:47:25.299Z,7.5
2023-04-08T11:52:31.392Z,7.6
2023-04-08T11:57:37.509Z,8.7
2023-04-08T12:02:43.627Z,8.8
2023-04-08T12:07:49.743Z,9.3
2023-04-08T12:12:55.989Z,8.8
2023-04-08T12:18:01.970Z,8.6
2023-04-08T12:23:08.078Z,8.7
2023-04-08T12:28:14.196Z,8.8
2023-04-08T12:33:20.307Z,9
2023-04-08T12:38:26.421Z,9
2023-04-08T12:43:32.537Z,8.8
2023-04-08T12:48:38.662Z,9.1
2023-04-08T12:53:43.787Z,8.9
2023-04-08T12:58:49.892Z,9.3
2023-04-08T13:03:56.010Z,9.6
2023-04-08T13:09:02.136Z,9.6
2023-04-08T13:14:08.228Z,9.9
2023-04-08T13:19:14.419Z,10.1
2023-04-08T13:24:20.458Z,10.1
2023-04-08T13:29:26.711Z,10.6
2023-04-08T13:34:32.666Z,10.8
2023-04-08T13:39:38.790Z,11.4
2023-04-08T13:44:44.908Z,11.1
2023-04-08T13:49:50.993Z,10.3
2023-04-08T13:54:57.108Z,10.4
2023-04-08T14:00:02.303Z,10.8
2023-04-08T14:05:08.332Z,10.4
2023-04-08T14:10:14.451Z,10.2
2023-04-08T14:15:20.557Z,10.1
2023-04-08T14:20:26.653Z,10.6
2023-04-08T14:25:32.752Z,11.8
2023-04-08T14:30:39.063Z,11.8
2023-04-08T14:35:44.989Z,11.4
2023-04-08T14:40:51.091Z,11.2
2023-04-08T14:45:57.200Z,11
2023-04-08T14:51:03.340Z,10.6
2023-04-08T14:56:09.436Z,10.8
2023-04-08T15:01:15.637Z,12.5
2023-04-08T15:06:21.654Z,11.7
2023-04-08T15:11:26.759Z,11.4
2023-04-08T15:16:32.861Z,11
2023-04-08T15:21:38.976Z,10.8
2023-04-08T15:26:45.087Z,10.6
2023-04-08T15:31:51.195Z,9.9
2023-04-08T15:36:57.304Z,9.9
2023-04-08T15:42:03.397Z,10.3
2023-04-08T15:47:09.545Z,11.8
2023-04-08T15:52:15.707Z,11.6
2023-04-08T15:57:21.727Z,11.8
2023-04-08T16:02:27.837Z,12.1
2023-04-08T16:07:33.956Z,12.2
2023-04-08T16:12:40.074Z,12.4
2023-04-08T16:17:45.188Z,11.9
2023-04-08T16:22:51.497Z,11.3
2023-04-08T16:27:57.557Z,11
2023-04-08T16:33:03.569Z,10.7
2023-04-08T16:38:09.837Z,10.5
2023-04-08T16:43:16.235Z,10.1
2023-04-08T16:48:21.930Z,9.9
2023-04-08T16:53:27.942Z,10.1
2023-04-08T16:58:34.067Z,10.5
2023-04-08T17:03:40.255Z,10.3
2023-04-08T17:08:46.364Z,9.7
2023-04-08T17:13:52.388Z,9.3
2023-04-08T17:18:58.515Z,9
2023-04-08T17:24:03.656Z,8.8
2023-04-08T17:29:09.754Z,8.5
2023-04-08T17:34:15.861Z,8.4
2023-04-08T17:39:22.040Z,8.3
2023-04-08T17:44:28.155Z,8.2
2023-04-08T17:49:34.239Z,8.2
2023-04-08T17:54:40.369Z,8.5
2023-04-08T17:59:46.460Z,8.5
2023-04-08T18:04:52.560Z,8.5
2023-04-08T18:09:58.686Z,8.5
2023-04-08T18:15:04.796Z,8.6
2023-04-08T18:20:10.904Z,8.5
2023-04-08T18:25:17.033Z,8.2
2023-04-08T18:30:22.158Z,8
2023-04-08T18:35:28.266Z,7.9
2023-04-08T18:40:34.383Z,7.8
2023-04-08T18:45:40.491Z,7.7
2023-04-08T18:50:46.605Z,7.5
2023-04-08T18:55:52.727Z,7.5
2023-04-08T19:00:58.803Z,7.4
2023-04-08T19:06:04.939Z,7.3
2023-04-08T19:11:11.057Z,7.2
2023-04-08T19:16:17.163Z,7.1
2023-04-08T19:21:23.263Z,6.9
2023-04-08T19:26:29.387Z,6.8
2023-04-08T19:31:35.521Z,6.7
2023-04-08T19:36:40.648Z,6.6
2023-04-08T19:41:46.774Z,6.5
2023-04-08T19:46:52.881Z,6.5
2023-04-08T19:51:59.000Z,6.4
2023-04-08T19:57:05.119Z,6.3
2023-04-08T20:02:11.247Z,6.3
2023-04-08T20:07:17.348Z,6.3
2023-04-08T20:12:23.477Z,6.2
2023-04-08T20:17:29.632Z,6.2
2023-04-08T20:22:35.772Z,6.2
2023-04-08T20:27:41.822Z,6.2
2023-04-08T20:32:47.958Z,6.1
2023-04-08T20:37:54.060Z,6.2
2023-04-08T20:42:59.214Z,6.1
2023-04-08T20:48:05.319Z,6.1
2023-04-08T20:53:11.441Z,6.1
2023-04-08T20:58:17.561Z,6.1
2023-04-08T21:03:23.684Z,6.1
2023-04-08T21:08:28.822Z,6
2023-04-08T21:13:34.963Z,6
2023-04-08T21:18:41.056Z,6
2023-04-08T21:23:47.167Z,6.1
2023-04-08T21:28:53.285Z,6.1
2023-04-08T21:33:59.443Z,6.1
2023-04-08T21:39:05.530Z,6
2023-04-08T21:44:11.633Z,6
2023-04-08T21:49:17.761Z,5.9
2023-04-08T21:54:23.897Z,5.8
2023-04-08T21:59:30.003Z,5.7
2023-04-08T22:04:36.138Z,5.4
2023-04-08T22:09:42.261Z,5.2
2023-04-08T22:14:47.357Z,5.1
2023-04-08T22:19:53.477Z,4.9
2023-04-08T22:24:59.615Z,4.8
2023-04-08T22:30:05.724Z,4.8
2023-04-08T22:35:11.844Z,4.8
2023-04-08T22:40:17.958Z,4.7
2023-04-08T22:45:24.092Z,4.7
2023-04-08T22:50:30.207Z,4.7
2023-04-08T22:55:36.335Z,4.6
2023-04-08T23:00:42.438Z,4.6
2023-04-08T23:05:48.564Z,4.5
2023-04-08T23:10:54.669Z,4.5
2023-04-08T23:16:00.792Z,4.4
2023-04-08T23:21:06.933Z,4.4
2023-04-08T23:26:12.056Z,4.1
2023-04-08T23:31:18.171Z,3.5
2023-04-08T23:36:24.286Z,3.2
2023-04-08T23:41:30.413Z,2.6
2023-04-08T23:46:36.541Z,2.2
2023-04-08T23:51:42.644Z,2.5
2023-04-08T23:56:48.774Z,2.4
